Time;durP1;ratioP1;P1;durP2;ratioP2;P2;SDS_P1;SDS_P2;PMS_P1;PMS_P2;Temp;Humidity;BMP_temperature;BMP_pressure;BME280_temperature;BME280_humidity;BME280_pressure;Samples;Min_cycle;Max_cycle;Signal;HPM_P1;HPM_P2
2021/05/28 00:02:38;;;;;;;5.85;3.45;;;;;;;10.81;85.56;100371.05;2843471;83;21330;-62
2021/05/28 00:06:39;;;;;;;3.95;3.58;;;;;;;10.73;85.47;100374.80;2843616;83;21051;-63
2021/05/28 00:10:42;;;;;;;6.08;3.40;;;;;;;10.58;85.43;100377.72;2843508;83;21016;-62
2021/05/28 00:14:45;;;;;;;7.03;3.37;;;;;;;10.45;85.90;100387.67;2843523;83;21570;-62
2021/05/28 00:18:47;;;;;;;6.17;3.22;;;;;;;10.37;86.32;100381.10;2843406;83;21071;-62
2021/05/28 00:22:49;;;;;;;4.03;3.47;;;;;;;10.36;86.65;100389.22;2843346;83;21607;-62
2021/05/28 00:26:51;;;;;;;4.55;2.98;;;;;;;10.34;86.80;100384.52;2843351;83;21053;-62
2021/05/28 00:30:52;;;;;;;5.00;3.22;;;;;;;10.39;86.47;100381.83;2843506;83;21056;-62
2021/05/28 00:34:54;;;;;;;4.12;3.47;;;;;;;10.36;86.50;100382.08;2843460;83;21151;-62
2021/05/28 00:38:56;;;;;;;6.53;3.15;;;;;;;10.37;86.83;100378.45;2843259;83;22140;-62
2021/05/28 00:42:58;;;;;;;8.53;4.85;;;;;;;10.40;86.48;100373.38;2843258;83;21090;-62
2021/05/28 00:47:00;;;;;;;4.35;3.95;;;;;;;10.41;86.74;100372.44;2843420;83;21643;-63
2021/05/28 00:51:02;;;;;;;5.08;3.72;;;;;;;10.42;86.67;100374.12;2843122;83;21628;-62
2021/05/28 00:55:06;;;;;;;4.62;3.65;;;;;;;10.39;86.49;100375.17;2843176;83;21060;-62
2021/05/28 00:59:09;;;;;;;4.58;4.15;;;;;;;10.38;86.81;100374.81;2843489;83;21083;-62
2021/05/28 01:03:11;;;;;;;5.92;4.42;;;;;;;10.32;86.79;100370.00;2843361;82;21096;-63
2021/05/28 01:07:13;;;;;;;5.10;4.45;;;;;;;10.25;86.79;100371.46;2843464;83;21052;-61
2021/05/28 01:11:14;;;;;;;7.35;4.72;;;;;;;10.15;86.92;100372.17;2843460;83;21060;-61
2021/05/28 01:15:16;;;;;;;5.72;4.42;;;;;;;10.10;87.23;100374.36;2843429;83;21092;-62
2021/05/28 01:19:18;;;;;;;4.87;3.67;;;;;;;10.12;87.27;100378.20;2843274;83;21055;-61
2021/05/28 01:23:20;;;;;;;4.72;3.58;;;;;;;10.19;86.54;100378.57;2843345;83;21060;-61
2021/05/28 01:27:22;;;;;;;3.22;2.70;;;;;;;10.15;86.59;100381.48;2843274;83;21574;-61
2021/05/28 01:31:24;;;;;;;5.90;3.40;;;;;;;10.12;86.47;100392.35;2843424;83;21103;-62
2021/05/28 01:35:26;;;;;;;4.78;3.58;;;;;;;10.09;86.92;100393.93;2843269;83;21112;-62
2021/05/28 01:39:27;;;;;;;4.92;4.33;;;;;;;10.08;87.27;100400.21;2843280;83;21083;-59
2021/05/28 01:43:30;;;;;;;6.90;4.05;;;;;;;10.18;87.44;100396.82;2843269;83;21107;-59
2021/05/28 01:47:33;;;;;;;5.17;3.50;;;;;;;10.28;86.94;100402.62;2843558;83;21067;-60
2021/05/28 01:51:34;;;;;;;5.53;4.22;;;;;;;10.37;86.69;100396.23;2843589;83;21091;-59
2021/05/28 01:55:37;;;;;;;7.37;4.40;;;;;;;10.40;86.53;100394.65;2843645;83;21119;-59
2021/05/28 01:59:39;;;;;;;5.00;4.37;;;;;;;10.45;86.53;100393.00;2843476;83;21071;-59
2021/05/28 02:03:41;;;;;;;7.03;4.42;;;;;;;10.42;86.85;100393.60;2843706;83;21044;-59
2021/05/28 02:07:43;;;;;;;7.45;4.67;;;;;;;10.38;87.40;100398.75;2843466;83;21103;-59
2021/05/28 02:11:45;;;;;;;6.15;4.95;;;;;;;10.36;88.35;100403.34;2843562;83;21083;-59
2021/05/28 02:15:47;;;;;;;5.33;3.85;;;;;;;10.37;89.06;100401.05;2843483;83;21044;-59
2021/05/28 02:19:48;;;;;;;6.12;4.47;;;;;;;10.37;89.15;100406.86;2843352;83;21088;-59
2021/05/28 02:23:50;;;;;;;5.72;4.50;;;;;;;10.36;89.56;100400.69;2843305;83;21104;-59
2021/05/28 02:27:52;;;;;;;5.20;3.98;;;;;;;10.38;90.20;100399.25;2843584;83;21012;-60
2021/05/28 02:31:54;;;;;;;4.78;4.30;;;;;;;10.42;90.44;100402.91;2843687;83;21091;-59
2021/05/28 02:35:56;;;;;;;7.90;5.42;;;;;;;10.46;90.31;100410.14;2844219;83;21100;-59
2021/05/28 02:39:58;;;;;;;5.62;4.35;;;;;;;10.47;90.05;100402.52;2847887;83;21108;-59
2021/05/28 02:44:01;;;;;;;5.62;4.80;;;;;;;10.45;90.08;100407.13;2847854;83;21147;-58
2021/05/28 02:48:04;;;;;;;4.83;3.92;;;;;;;10.42;90.12;100413.55;2847988;83;21088;-60
2021/05/28 02:52:06;;;;;;;5.33;4.83;;;;;;;10.41;90.08;100417.14;2856977;80;21835;-59
2021/05/28 02:56:08;;;;;;;6.22;4.15;;;;;;;10.45;90.00;100422.25;2885457;82;21036;-59
2021/05/28 03:00:12;;;;;;;7.33;4.40;;;;;;;10.41;89.73;100422.47;2897250;82;21052;-59
2021/05/28 03:04:14;;;;;;;5.25;4.12;;;;;;;10.46;89.60;100422.61;2897704;82;21658;-61
2021/05/28 03:08:17;;;;;;;5.87;4.75;;;;;;;10.47;89.31;100433.61;2897523;81;21052;-61
2021/05/28 03:12:18;;;;;;;7.00;4.45;;;;;;;10.53;90.05;100442.42;2897663;82;21036;-59
2021/05/28 03:16:20;;;;;;;6.60;4.37;;;;;;;10.65;90.83;100446.77;2898059;82;21975;-60
2021/05/28 03:20:25;;;;;;;6.22;5.05;;;;;;;10.79;91.77;100440.81;2898073;82;21118;-59
2021/05/28 03:24:27;;;;;;;4.92;4.42;;;;;;;10.97;92.22;100438.50;2897098;82;21091;-59
2021/05/28 03:28:29;;;;;;;6.55;5.03;;;;;;;11.12;92.30;100439.05;2897709;82;21052;-59
2021/05/28 03:32:31;;;;;;;8.60;4.62;;;;;;;11.26;92.27;100440.10;2897332;82;21044;-59
2021/05/28 03:36:33;;;;;;;6.50;5.08;;;;;;;11.40;92.20;100434.13;2884259;81;21087;-59
2021/05/28 03:40:35;;;;;;;7.40;5.53;;;;;;;11.54;92.19;100436.97;2848401;83;21088;-59
2021/05/28 03:44:37;;;;;;;10.08;5.95;;;;;;;11.65;91.84;100446.22;2848322;83;21642;-59
2021/05/28 03:48:38;;;;;;;4.37;4.00;;;;;;;11.73;91.95;100445.58;2848822;83;21603;-59
2021/05/28 03:52:40;;;;;;;5.85;4.72;;;;;;;11.82;91.76;100453.28;2848543;83;21077;-59
2021/05/28 03:56:42;;;;;;;8.35;4.97;;;;;;;11.94;91.63;100455.39;2848454;83;21116;-59
2021/05/28 04:00:43;;;;;;;8.00;6.20;;;;;;;11.99;91.26;100453.20;2848391;83;21092;-59
2021/05/28 04:04:45;;;;;;;7.87;5.80;;;;;;;12.03;91.17;100449.32;2848732;83;21100;-58
2021/05/28 04:08:47;;;;;;;8.28;6.00;;;;;;;12.05;91.04;100458.03;2834059;84;21476;-59
2021/05/28 04:12:49;;;;;;;7.42;5.35;;;;;;;12.11;91.13;100456.66;2839942;83;21081;-58
2021/05/28 04:16:50;;;;;;;6.00;5.25;;;;;;;12.15;91.05;100456.75;2839974;83;21089;-59
2021/05/28 04:20:53;;;;;;;8.95;5.53;;;;;;;12.20;91.17;100450.52;2840043;83;21061;-59
2021/05/28 04:24:54;;;;;;;7.62;6.55;;;;;;;12.28;91.50;100448.53;2840104;83;21065;-59
2021/05/28 04:28:56;;;;;;;9.55;7.00;;;;;;;12.39;91.29;100453.79;2839762;83;21033;-64
2021/05/28 04:32:58;;;;;;;8.53;6.10;;;;;;;12.61;91.29;100446.57;2840002;83;21104;-62
2021/05/28 04:37:00;;;;;;;9.73;7.17;;;;;;;12.73;90.89;100453.13;2841097;83;21132;-64
2021/05/28 04:41:02;;;;;;;9.08;7.62;;;;;;;12.78;90.40;100453.08;2844009;83;21515;-63
2021/05/28 04:45:06;;;;;;;8.95;7.65;;;;;;;12.82;89.99;100457.16;2843942;83;21045;-64
2021/05/28 04:49:07;;;;;;;7.08;6.33;;;;;;;12.93;89.76;100462.05;2844170;83;21077;-62
2021/05/28 04:53:09;;;;;;;10.30;7.78;;;;;;;13.08;89.97;100465.16;2844151;83;21128;-62
2021/05/28 04:57:12;;;;;;;7.15;6.45;;;;;;;14.04;92.89;100469.82;2809113;83;21622;-63
2021/05/28 05:01:13;;;;;;;9.48;8.55;;;;;;;14.34;88.11;100459.87;2822322;84;21059;-63
2021/05/28 05:05:17;;;;;;;8.78;6.62;;;;;;;14.34;85.84;100467.89;2844521;83;21096;-64
2021/05/28 05:09:18;;;;;;;9.90;8.50;;;;;;;14.28;85.56;100467.15;2844441;83;21100;-63
2021/05/28 05:13:20;;;;;;;11.55;8.65;;;;;;;14.18;84.95;100473.03;2844299;83;21080;-64
2021/05/28 05:17:22;;;;;;;10.78;7.55;;;;;;;13.99;86.15;100470.24;2844633;83;21610;-63
2021/05/28 05:21:23;;;;;;;9.95;8.50;;;;;;;14.10;87.45;100477.77;2844673;83;21100;-63
2021/05/28 05:25:25;;;;;;;11.57;8.68;;;;;;;14.18;86.35;100483.73;2844366;83;21065;-64
2021/05/28 05:29:27;;;;;;;10.13;7.70;;;;;;;14.19;86.12;100476.89;2844425;83;21034;-64
2021/05/28 05:33:29;;;;;;;11.05;8.60;;;;;;;14.20;85.21;100482.59;2844165;83;21113;-65
2021/05/28 05:37:31;;;;;;;10.80;6.78;;;;;;;14.23;84.63;100488.98;2845055;83;21716;-65
2021/05/28 05:41:32;;;;;;;9.35;7.72;;;;;;;14.30;85.02;100495.94;2846696;83;21155;-65
2021/05/28 05:45:34;;;;;;;6.72;6.03;;;;;;;14.16;84.07;100497.25;2846417;83;21075;-64
2021/05/28 05:49:37;;;;;;;13.93;7.95;;;;;;;13.98;83.86;100504.66;2846575;83;21063;-65
2021/05/28 05:53:38;;;;;;;10.30;6.60;;;;;;;13.73;84.32;100515.44;2901621;82;21119;-65
2021/05/28 05:57:40;;;;;;;8.78;7.65;;;;;;;13.59;85.44;100523.39;2901683;82;21076;-64
2021/05/28 06:01:42;;;;;;;9.68;6.58;;;;;;;13.63;85.72;100530.14;2901659;82;21056;-64
2021/05/28 06:05:44;;;;;;;10.72;6.12;;;;;;;13.70;85.42;100527.75;2901585;82;21079;-64
2021/05/28 06:09:46;;;;;;;8.45;6.83;;;;;;;13.82;85.32;100519.95;2901966;81;21062;-64
2021/05/28 06:13:48;;;;;;;6.75;6.03;;;;;;;14.11;84.49;100522.25;2901670;82;21016;-64
2021/05/28 06:17:49;;;;;;;7.45;6.53;;;;;;;14.35;83.75;100515.10;2901933;82;21611;-64
2021/05/28 06:21:52;;;;;;;16.12;7.12;;;;;;;14.87;83.86;100513.80;2902256;82;21381;-65
2021/05/28 06:25:54;;;;;;;6.50;5.90;;;;;;;15.27;81.98;100515.77;2902494;82;22393;-64
2021/05/28 06:29:57;;;;;;;9.20;4.70;;;;;;;15.38;80.90;100520.90;2902533;82;21107;-64
2021/05/28 06:33:59;;;;;;;6.37;5.08;;;;;;;15.28;78.71;100516.94;2902152;82;21083;-64
2021/05/28 06:38:01;;;;;;;6.22;5.58;;;;;;;15.05;79.02;100529.08;2900037;81;21084;-65
2021/05/28 06:42:03;;;;;;;5.37;4.87;;;;;;;14.86;79.81;100532.20;2897591;82;21099;-65
2021/05/28 06:46:05;;;;;;;6.55;4.97;;;;;;;14.73;79.77;100538.37;2897149;82;21052;-65
2021/05/28 06:50:09;;;;;;;6.85;6.12;;;;;;;14.65;80.05;100541.27;2897495;82;21048;-65
2021/05/28 06:54:10;;;;;;;7.53;5.60;;;;;;;14.65;80.36;100538.59;2897698;82;21079;-65
2021/05/28 06:58:12;;;;;;;7.35;6.10;;;;;;;14.84;82.03;100539.53;2897460;82;21123;-65
2021/05/28 07:02:14;;;;;;;5.33;4.83;;;;;;;15.02;80.96;100540.92;2897643;82;21108;-65
2021/05/28 07:06:16;;;;;;;6.85;6.15;;;;;;;15.10;80.57;100537.50;2897770;82;21609;-64
2021/05/28 07:10:18;;;;;;;5.70;4.83;;;;;;;15.22;78.95;100543.02;2897612;82;21064;-64
2021/05/28 07:14:21;;;;;;;5.22;4.72;;;;;;;15.30;78.52;100531.55;2897658;82;21092;-64
2021/05/28 07:18:22;;;;;;;5.75;5.15;;;;;;;15.33;77.96;100535.73;2897925;82;21590;-64
2021/05/28 07:22:24;;;;;;;4.08;3.67;;;;;;;15.50;79.31;100544.30;2897778;82;21060;-66
2021/05/28 07:26:26;;;;;;;4.50;4.10;;;;;;;15.62;76.73;100544.09;2897602;82;21105;-65
2021/05/28 07:30:28;;;;;;;4.75;4.05;;;;;;;15.64;76.18;100539.42;2898353;82;21056;-65
2021/05/28 07:34:29;;;;;;;6.30;3.95;;;;;;;15.69;77.05;100548.70;2897902;82;21092;-65
2021/05/28 07:38:33;;;;;;;4.25;3.85;;;;;;;15.69;77.28;100544.67;2898720;81;21119;-66
2021/05/28 07:42:35;;;;;;;3.90;3.45;;;;;;;15.60;76.47;100549.59;2899852;81;21133;-65
2021/05/28 07:46:43;;;;;;;5.25;4.75;;;;;;;15.49;76.64;100550.66;2899621;81;21078;-65
2021/05/28 07:50:47;;;;;;;4.03;3.62;;;;;;;15.44;77.52;100550.80;2899213;81;21526;-65
2021/05/28 07:54:50;;;;;;;4.33;3.58;;;;;;;15.52;77.78;100550.87;2899880;81;21035;-64
2021/05/28 07:58:52;;;;;;;6.50;4.87;;;;;;;15.65;77.70;100554.51;2899975;81;21087;-65
2021/05/28 08:02:54;;;;;;;5.22;3.27;;;;;;;15.75;77.44;100548.59;2900367;81;21604;-64
2021/05/28 08:06:55;;;;;;;5.12;4.58;;;;;;;15.87;76.29;100537.61;2900152;82;21051;-64
2021/05/28 08:10:57;;;;;;;3.50;3.05;;;;;;;15.94;74.77;100548.12;2900409;81;21012;-65
2021/05/28 08:14:58;;;;;;;3.85;2.83;;;;;;;16.04;74.94;100549.37;2900134;82;21063;-65
2021/05/28 08:19:00;;;;;;;2.95;2.15;;;;;;;16.08;75.46;100548.88;2899708;81;21051;-65
2021/05/28 08:23:02;;;;;;;2.45;2.30;;;;;;;16.14;74.70;100554.12;2900211;82;21648;-65
2021/05/28 08:27:05;;;;;;;5.92;3.30;;;;;;;16.07;74.18;100550.39;2900167;81;21070;-65
2021/05/28 08:31:10;;;;;;;5.70;3.47;;;;;;;16.05;74.15;100542.48;2900112;82;21115;-65
2021/05/28 08:35:13;;;;;;;4.30;3.90;;;;;;;16.06;75.01;100544.17;2900045;81;21159;-65
2021/05/28 08:39:15;;;;;;;3.83;2.70;;;;;;;16.03;75.33;100549.85;2900132;81;21729;-65
2021/05/28 08:43:17;;;;;;;3.35;3.05;;;;;;;16.10;74.16;100553.59;2900135;81;21095;-65
2021/05/28 08:47:18;;;;;;;3.37;3.08;;;;;;;16.35;75.12;100551.11;2900109;81;21075;-66
2021/05/28 08:51:20;;;;;;;2.58;2.33;;;;;;;16.59;73.34;100550.92;2900312;81;21103;-64
2021/05/28 08:55:22;;;;;;;5.15;3.22;;;;;;;16.73;72.60;100555.36;2900366;81;21063;-66
2021/05/28 08:59:23;;;;;;;3.45;2.83;;;;;;;16.73;72.33;100545.97;2900502;82;21098;-65
2021/05/28 09:03:34;;;;;;;3.15;2.95;;;;;;;16.93;69.91;100547.41;2900811;82;21067;-66
2021/05/28 09:07:37;;;;;;;5.08;3.87;;;;;;;17.25;69.82;100545.86;2900350;82;21074;-65
2021/05/28 09:12:04;;;;;;;4.15;2.85;;;;;;;17.39;70.10;100535.48;2900516;81;21043;-65
2021/05/28 09:16:16;;;;;;;2.60;2.27;;;;;;;17.79;68.22;100537.89;2900417;81;21635;-65
2021/05/28 09:20:21;;;;;;;3.80;2.30;;;;;;;17.90;65.24;100537.23;2900696;81;21079;-65
2021/05/28 09:24:31;;;;;;;4.17;3.75;;;;;;;17.70;66.19;100541.59;2901003;82;21023;-65
2021/05/28 09:28:48;;;;;;;3.42;2.58;;;;;;;17.54;66.10;100535.19;2900357;82;21082;-67
2021/05/28 09:32:50;;;;;;;3.92;2.87;;;;;;;17.46;66.14;100547.25;2900485;81;21106;-66
2021/05/28 09:36:52;;;;;;;4.30;2.77;;;;;;;17.40;67.21;100538.51;2900549;82;21154;-65
2021/05/28 09:40:53;;;;;;;4.60;3.52;;;;;;;17.43;67.61;100546.24;2903293;81;22239;-65
2021/05/28 09:44:55;;;;;;;3.60;2.72;;;;;;;17.52;67.17;100542.58;2903029;82;21059;-65
2021/05/28 09:49:11;;;;;;;3.30;3.00;;;;;;;17.49;66.54;100537.53;2903318;82;21107;-65
2021/05/28 09:53:34;;;;;;;2.30;2.10;;;;;;;17.53;67.62;100540.23;2903207;82;21091;-66
2021/05/28 09:57:40;;;;;;;2.70;2.35;;;;;;;17.95;66.62;100530.32;2903411;82;21068;-65
2021/05/28 10:02:02;;;;;;;3.45;2.10;;;;;;;18.51;65.95;100528.78;2903561;82;21008;-65
2021/05/28 10:06:01;;;;;;;5.62;2.72;;;;;;;18.66;67.37;100531.08;2902432;82;21068;-66
2021/05/28 10:10:05;;;;;;;3.85;2.35;;;;;;;18.79;64.98;100529.70;2903679;82;21068;-66
2021/05/28 10:14:09;;;;;;;2.70;2.27;;;;;;;18.62;65.04;100529.75;2903566;82;21020;-65
2021/05/28 10:18:13;;;;;;;4.80;3.17;;;;;;;18.43;65.13;100528.78;2903498;82;21570;-66
2021/05/28 10:22:17;;;;;;;5.20;3.22;;;;;;;18.25;65.24;100531.17;2903130;82;21043;-66
2021/05/28 10:26:34;;;;;;;3.50;2.85;;;;;;;18.49;67.09;100529.47;2903572;82;22230;-65
2021/05/28 10:30:42;;;;;;;3.55;2.58;;;;;;;18.80;65.35;100527.34;2903483;81;21016;-66
2021/05/28 10:35:18;;;;;;;1.95;1.75;;;;;;;18.69;63.93;100532.59;2903403;82;21143;-66
2021/05/28 10:39:21;;;;;;;7.03;3.85;;;;;;;18.27;64.01;100535.87;2903303;81;21562;-66
2021/05/28 10:43:23;;;;;;;3.30;2.33;;;;;;;18.06;69.60;100540.45;2903160;82;21100;-65
2021/05/28 10:47:25;;;;;;;2.35;2.15;;;;;;;18.20;67.77;100531.70;2903586;82;21033;-66
2021/05/28 10:51:35;;;;;;;2.70;2.40;;;;;;;18.60;69.30;100541.20;2903309;82;21095;-66
2021/05/28 10:55:58;;;;;;;2.90;1.60;;;;;;;19.00;67.44;100545.81;2903060;82;21076;-66
2021/05/28 11:00:05;;;;;;;2.70;1.55;;;;;;;18.62;62.37;100541.05;2901738;82;21045;-66
2021/05/28 11:04:10;;;;;;;2.90;0.65;;;;;;;17.27;63.00;100569.37;2901785;82;21075;-65
2021/05/28 11:08:45;;;;;;;1.45;1.15;;;;;;;15.84;70.08;100574.47;2902306;82;21107;-65
2021/05/28 11:12:47;;;;;;;1.60;1.40;;;;;;;15.20;73.23;100591.03;2901905;82;21558;-65
2021/05/28 11:16:57;;;;;;;2.77;2.52;;;;;;;14.90;78.15;100576.43;2901969;82;21084;-66
2021/05/28 11:21:20;;;;;;;2.98;2.50;;;;;;;14.99;80.33;100571.55;2902049;82;21123;-65
2021/05/28 11:25:28;;;;;;;1.70;1.60;;;;;;;15.30;82.52;100575.77;2901943;82;21222;-65
2021/05/28 11:29:29;;;;;;;1.50;1.35;;;;;;;15.55;78.20;100562.63;2902855;82;21052;-66
2021/05/28 11:33:41;;;;;;;2.67;2.42;;;;;;;15.67;77.58;100549.83;2902516;82;21071;-65
2021/05/28 11:38:05;;;;;;;2.62;1.92;;;;;;;16.01;80.06;100543.80;2902290;82;21131;-64
2021/05/28 11:42:07;;;;;;;1.95;1.45;;;;;;;16.45;78.32;100540.75;2901369;82;21087;-65
2021/05/28 11:46:09;;;;;;;4.12;2.37;;;;;;;16.79;74.72;100538.59;2902916;82;21114;-65
2021/05/28 11:50:14;;;;;;;2.65;2.45;;;;;;;17.13;72.53;100537.77;2903190;82;21047;-65
2021/05/28 11:54:27;;;;;;;2.12;2.02;;;;;;;17.53;73.67;100528.61;2903342;82;21066;-65
2021/05/28 11:58:33;;;;;;;3.10;1.98;;;;;;;17.75;72.14;100524.45;2902905;82;21134;-65
2021/05/28 12:02:43;;;;;;;2.22;1.75;;;;;;;17.90;68.38;100516.53;2903290;82;21092;-66
2021/05/28 12:06:45;;;;;;;3.00;2.12;;;;;;;18.04;70.21;100516.91;2903391;82;21051;-65
2021/05/28 12:10:51;;;;;;;2.45;2.17;;;;;;;18.25;69.57;100523.09;2903595;82;21088;-65
2021/05/28 12:15:08;;;;;;;2.37;2.17;;;;;;;18.28;67.30;100526.81;2903538;82;21099;-66
2021/05/28 12:19:15;;;;;;;3.77;3.00;;;;;;;18.40;67.87;100517.88;2903831;82;21063;-65
2021/05/28 12:23:29;;;;;;;16.37;2.55;;;;;;;18.72;70.38;100522.81;2903874;82;21553;-65
2021/05/28 12:27:31;;;;;;;2.00;1.80;;;;;;;19.04;64.55;100520.19;2903545;82;21064;-66
2021/05/28 12:31:36;;;;;;;1.87;1.57;;;;;;;18.93;63.56;100524.08;2903775;82;21064;-66
2021/05/28 12:35:40;;;;;;;8.13;4.15;;;;;;;18.60;62.90;100533.13;2903803;82;21116;-66
2021/05/28 12:39:42;;;;;;;5.12;1.00;;;;;;;18.21;63.50;100541.46;2903500;81;21088;-65
2021/05/28 12:43:46;;;;;;;1.75;1.22;;;;;;;18.09;60.55;100543.66;2903626;82;21068;-65
2021/05/28 12:47:47;;;;;;;0.60;0.60;;;;;;;17.76;61.46;100535.55;2903176;82;21060;-66
2021/05/28 12:51:50;;;;;;;0.70;0.70;;;;;;;17.41;62.83;100557.67;2903236;82;21075;-65
2021/05/28 12:55:55;;;;;;;0.50;0.50;;;;;;;16.92;63.04;100561.84;2903200;82;21123;-66
2021/05/28 12:59:57;;;;;;;0.60;0.60;;;;;;;16.36;65.29;100560.84;2902967;82;21052;-65
2021/05/28 13:04:04;;;;;;;2.50;1.10;;;;;;;15.87;68.75;100569.80;2902635;82;21067;-65
2021/05/28 13:08:08;;;;;;;1.87;1.75;;;;;;;15.47;72.60;100566.05;2902729;82;21056;-63
2021/05/28 13:12:11;;;;;;;1.82;0.85;;;;;;;15.22;75.77;100578.33;2903164;82;21024;-63
2021/05/28 13:16:13;;;;;;;0.82;0.82;;;;;;;15.17;77.71;100574.78;2900794;82;21091;-65
2021/05/28 13:20:17;;;;;;;0.72;0.72;;;;;;;15.34;77.60;100570.44;2868443;80;21039;-61
2021/05/28 13:24:43;;;;;;;1.20;1.10;;;;;;;15.56;76.52;100567.84;2853579;83;21557;-64
2021/05/28 13:28:46;;;;;;;1.32;1.22;;;;;;;15.78;76.09;100559.00;2902717;82;21051;-63
2021/05/28 13:32:48;;;;;;;2.27;1.75;;;;;;;16.09;77.13;100554.59;2898774;81;21104;-67
2021/05/28 13:36:50;;;;;;;1.70;1.60;;;;;;;16.43;76.07;100558.38;2880884;80;21157;-67
2021/05/28 13:40:54;;;;;;;2.30;2.08;;;;;;;16.59;74.45;100552.27;2873050;80;21108;-66
2021/05/28 13:44:59;;;;;;;2.87;2.58;;;;;;;16.66;74.35;100568.06;2892350;80;21104;-66
2021/05/28 13:49:07;;;;;;;2.85;2.65;;;;;;;16.63;73.82;100560.33;2895260;82;21041;-68
2021/05/28 13:53:58;;;;;;;2.50;2.30;;;;;;;16.52;73.16;100566.81;2893797;81;21132;-66
2021/05/28 13:58:19;;;;;;;2.55;2.25;;;;;;;16.38;74.43;100565.55;2893685;82;21018;-66
2021/05/28 14:02:37;;;;;;;3.58;1.75;;;;;;;16.18;73.77;100581.51;2894316;81;21081;-66
2021/05/28 14:06:53;;;;;;;;;;;;;;;15.93;75.00;100586.67;2896413;80;21037;-66
2021/05/28 14:11:09;;;;;;;2.10;1.98;;;;;;;15.75;76.99;100578.09;2844057;83;20216;-65
2021/05/28 14:15:19;;;;;;;2.47;1.30;;;;;;;15.88;77.89;100568.80;2862348;82;21128;-65
2021/05/28 14:19:21;;;;;;;2.42;1.22;;;;;;;16.18;78.08;100559.52;2894415;82;21107;-65
2021/05/28 14:23:23;;;;;;;1.98;1.20;;;;;;;16.42;76.81;100562.89;2895552;82;21054;-65
2021/05/28 14:27:25;;;;;;;2.70;1.50;;;;;;;16.47;74.92;100563.77;2895931;82;21352;-65
2021/05/28 14:31:27;;;;;;;1.55;1.45;;;;;;;16.49;74.71;100560.91;2895462;81;21036;-66
2021/05/28 14:35:30;;;;;;;1.05;1.05;;;;;;;16.47;74.81;100554.38;2896229;81;21107;-66
2021/05/28 14:39:32;;;;;;;1.15;1.05;;;;;;;16.60;75.54;100555.77;2896786;82;21077;-66
2021/05/28 14:43:34;;;;;;;3.12;2.02;;;;;;;16.60;74.34;100560.66;2896786;81;21892;-66
2021/05/28 14:47:42;;;;;;;1.77;1.60;;;;;;;16.67;75.74;100564.38;2896695;82;21064;-66
2021/05/28 14:51:44;;;;;;;1.82;1.65;;;;;;;16.69;74.72;100565.06;2897282;82;21580;-66
2021/05/28 14:55:46;;;;;;;2.55;2.10;;;;;;;16.66;75.68;100563.22;2897234;82;21046;-66
2021/05/28 14:59:50;;;;;;;2.33;1.98;;;;;;;16.63;75.48;100567.56;2897046;82;21097;-66
2021/05/28 15:03:51;;;;;;;1.55;1.35;;;;;;;16.61;76.59;100570.39;2897451;81;21065;-66
2021/05/28 15:07:53;;;;;;;1.77;1.65;;;;;;;16.58;75.32;100579.26;2897143;82;21050;-67
2021/05/28 15:11:55;;;;;;;2.72;1.32;;;;;;;16.54;75.98;100562.64;2897107;81;21030;-66
2021/05/28 15:15:58;;;;;;;1.42;1.10;;;;;;;16.55;73.74;100557.61;2869635;82;21908;-66
2021/05/28 15:19:59;;;;;;;2.02;0.90;;;;;;;16.46;71.34;100555.86;2897241;82;21017;-66
2021/05/28 15:24:05;;;;;;;1.40;0.75;;;;;;;16.37;71.95;100561.19;2896898;81;21120;-66
2021/05/28 15:28:08;;;;;;;0.75;0.60;;;;;;;16.24;72.97;100560.27;2896789;82;21034;-66
2021/05/28 15:32:10;;;;;;;0.85;0.50;;;;;;;16.20;74.36;100560.72;2896780;82;21077;-66
2021/05/28 15:36:12;;;;;;;0.70;0.70;;;;;;;16.16;73.88;100563.38;2896875;81;21124;-66
2021/05/28 15:40:15;;;;;;;0.75;0.70;;;;;;;16.05;72.97;100559.93;2893500;82;21571;-66
2021/05/28 15:44:19;;;;;;;1.07;0.50;;;;;;;15.88;72.46;100570.14;2880710;82;21606;-66
2021/05/28 15:48:20;;;;;;;1.30;1.20;;;;;;;15.73;73.58;100570.70;2853021;83;21585;-67
2021/05/28 15:52:22;;;;;;;2.75;1.32;;;;;;;15.66;74.78;100577.64;2852833;83;21095;-66
2021/05/28 15:56:24;;;;;;;1.30;0.95;;;;;;;15.67;75.31;100573.97;2852932;82;21115;-66
2021/05/28 16:00:26;;;;;;;2.08;0.90;;;;;;;15.65;75.14;100575.48;2852618;83;21077;-66
2021/05/28 16:04:29;;;;;;;3.65;1.57;;;;;;;15.56;75.85;100569.19;2852619;83;21065;-67
2021/05/28 16:08:31;;;;;;;2.95;1.72;;;;;;;15.60;76.20;100567.02;2852913;83;21084;-66
2021/05/28 16:12:33;;;;;;;1.95;1.22;;;;;;;15.55;76.02;100572.01;2852908;83;21069;-66
2021/05/28 16:16:34;;;;;;;1.82;1.15;;;;;;;15.55;76.17;100562.14;2852993;83;21117;-65
2021/05/28 16:20:37;;;;;;;2.90;1.35;;;;;;;15.54;76.24;100566.30;2853161;83;21053;-65
2021/05/28 16:24:40;;;;;;;5.87;1.60;;;;;;;15.49;76.55;100568.09;2861109;82;21073;-66
2021/05/28 16:28:43;;;;;;;1.98;1.70;;;;;;;15.37;76.52;100574.16;2896384;82;21554;-65
2021/05/28 16:32:45;;;;;;;2.12;1.75;;;;;;;15.27;76.65;100578.75;2896617;82;21045;-68
2021/05/28 16:36:47;;;;;;;2.47;2.02;;;;;;;15.12;77.27;100572.54;2896320;82;21129;-64
2021/05/28 16:40:49;;;;;;;2.17;1.92;;;;;;;15.04;77.66;100576.47;2891269;81;21150;-65
2021/05/28 16:44:51;;;;;;;1.45;1.35;;;;;;;14.97;78.20;100576.69;2882707;82;21588;-64
2021/05/28 16:48:52;;;;;;;1.87;1.65;;;;;;;14.86;79.13;100583.08;2777132;85;21074;-67
2021/05/28 16:52:54;;;;;;;5.00;2.30;;;;;;;14.79;79.35;100584.16;2794994;85;21694;-63
2021/05/28 16:56:56;;;;;;;3.80;2.37;;;;;;;14.74;79.92;100583.75;2796458;85;21081;-63
2021/05/28 17:01:00;;;;;;;3.72;1.90;;;;;;;14.73;79.95;100592.78;2800566;85;21078;-66
2021/05/28 17:05:04;;;;;;;10.10;2.50;;;;;;;14.71;80.62;100591.57;2800592;84;21046;-66
2021/05/28 17:09:06;;;;;;;7.65;3.95;;;;;;;14.63;80.90;100598.61;2800536;85;21041;-67
2021/05/28 17:13:13;;;;;;;4.22;3.72;;;;;;;14.66;80.75;100600.52;2800670;85;21089;-67
2021/05/28 17:17:13;;;;;;;4.05;3.02;;;;;;;14.70;81.15;100602.41;2800002;85;21106;-65
2021/05/28 17:21:16;;;;;;;3.45;2.83;;;;;;;14.70;80.58;100605.92;2800524;85;21101;-67
2021/05/28 17:25:18;;;;;;;5.00;3.87;;;;;;;14.74;81.07;100609.67;2791157;85;21108;-66
2021/05/28 17:29:19;;;;;;;2.85;1.72;;;;;;;14.75;81.65;100610.05;2773981;85;21090;-66
2021/05/28 17:33:21;;;;;;;3.67;1.15;;;;;;;14.74;79.24;100607.86;2774071;85;21038;-67
2021/05/28 17:37:23;;;;;;;5.45;0.85;;;;;;;14.62;77.52;100607.15;2773691;85;21749;-65
2021/05/28 17:41:25;;;;;;;2.05;1.07;;;;;;;14.61;77.01;100605.47;2775691;84;21101;-67
2021/05/28 17:45:29;;;;;;;1.17;1.07;;;;;;;14.54;76.65;100608.34;2782309;85;29694;-66
2021/05/28 17:49:31;;;;;;;1.50;0.72;;;;;;;14.46;77.56;100606.89;2782153;85;21109;-65
2021/05/28 17:53:33;;;;;;;1.62;1.02;;;;;;;14.41;78.71;100604.16;2782808;85;21612;-66
2021/05/28 17:57:35;;;;;;;2.25;1.17;;;;;;;14.30;79.16;100609.66;2764119;84;21113;-66
2021/05/28 18:01:38;;;;;;;6.03;1.40;;;;;;;14.17;80.01;100605.11;2763114;86;21084;-67
2021/05/28 18:05:40;;;;;;;1.37;0.98;;;;;;;14.19;80.75;100603.96;2763581;86;21120;-65
2021/05/28 18:09:42;;;;;;;2.05;0.80;;;;;;;14.26;80.81;100598.89;2763522;86;21072;-66
2021/05/28 18:13:43;;;;;;;4.17;1.15;;;;;;;14.29;80.75;100603.95;2763421;86;21069;-67
2021/05/28 18:17:46;;;;;;;2.33;1.90;;;;;;;14.13;81.52;100616.06;2763170;86;21124;-66
2021/05/28 18:21:48;;;;;;;3.08;1.35;;;;;;;14.08;82.21;100607.63;2763007;86;21145;-67
2021/05/28 18:25:50;;;;;;;1.65;1.27;;;;;;;14.07;83.39;100608.62;2763334;84;21145;-66
2021/05/28 18:29:52;;;;;;;3.52;1.72;;;;;;;13.91;83.84;100612.34;2763185;86;21117;-65
2021/05/28 18:33:56;;;;;;;4.47;2.60;;;;;;;13.77;84.66;100615.79;2763214;86;21097;-66
2021/05/28 18:37:57;;;;;;;7.75;2.42;;;;;;;13.62;85.40;100626.02;2762206;86;21165;-62
2021/05/28 18:41:59;;;;;;;3.33;1.90;;;;;;;13.45;86.19;100624.86;2759981;86;21081;-64
2021/05/28 18:46:02;;;;;;;4.35;2.62;;;;;;;13.37;86.69;100626.84;2758053;86;21046;-64
2021/05/28 18:50:07;;;;;;;4.42;2.75;;;;;;;13.26;86.71;100627.78;2757599;85;21103;-64
2021/05/28 18:54:10;;;;;;;3.12;2.85;;;;;;;13.13;87.07;100625.83;2855409;80;21067;-64